Covington, Iowa
Current Conditions -  °F | °C
As of 12:52 PM on Monday 20 Oct 2014 (Local Time) from KCID Reporting Station
Clear Clear  
Wind Chill: 64°   Ceiling: Unl
Heat Index: 64°   Visibility: 10mi
Dew Point: 45°   Wind: 18mph
Humidity: 50%   Direction: 320°NW
Pressure: 29.96"   Gusts: 25mph
Location:  42.0483°N, 91.7982°W
Report Text: KCID 201752Z 32016G22KT 10SM CLR 18/07 A2996 RMK AO2 SLP145 T01780072 10183 20067 58008
Loading
Personal Weather Stations






























Interactive Weather Map New forecast layout! Learn more

10-Day Weather Forecast

Advertisements
Track Severe Weather on mobile